Time;durP1;ratioP1;P1;durP2;ratioP2;P2;SDS_P1;SDS_P2;PMS_P1;PMS_P2;Temp;Humidity;BMP_temperature;BMP_pressure;BME280_temperature;BME280_humidity;BME280_pressure;Samples;Min_cycle;Max_cycle;Signal;HPM_P1;HPM_P2
2024/04/12 00:01:47;;;;;;;;;;;;;;;17.07;40.99;102298.94;5279495;26;94105;-80
2024/04/12 00:04:20;;;;;;;;;;;;;;;17.06;41.38;102291.06;5254857;26;94562;-70
2024/04/12 00:07:00;;;;;;;;;;;;;;;17.04;41.95;102283.13;5227089;26;94387;-80
2024/04/12 00:09:29;;;;;;;;;;;;;;;17.02;41.94;102279.88;5238338;26;94585;-70
2024/04/12 00:11:55;;;;;;;;;;;;;;;17.00;41.17;102284.75;5261731;26;97821;-80
2024/04/12 00:14:23;;;;;;;;;;;;;;;16.98;41.30;102289.66;5265157;26;94594;-71
2024/04/12 00:16:52;;;;;;;;;;;;;;;16.96;41.41;102291.00;5238216;26;94698;-80
2024/04/12 00:19:19;;;;;;;;;;;;;;;16.94;41.75;102285.84;5207045;26;94392;-71
2024/04/12 00:21:51;;;;;;;;;;;;;;;16.91;41.41;102287.19;5230362;26;94361;-70
2024/04/12 00:24:18;;;;;;;;;;;;;;;16.88;42.04;102274.09;5266867;26;94445;-71
2024/04/12 00:26:46;;;;;;;;;;;;;;;16.86;41.40;102279.00;5258450;26;95297;-80
2024/04/12 00:29:30;;;;;;;;;;;;;;;16.83;41.96;102271.34;5254660;26;96688;-70
2024/04/12 00:32:13;;;;;;;;;;;;;;;16.80;41.57;102274.59;5253881;26;94671;-80
2024/04/12 00:34:51;;;;;;;;;;;;;;;16.79;41.89;102272.16;5230699;26;94934;-70
2024/04/12 00:37:20;;;;;;;;;;;;;;;16.76;41.11;102268.03;5230835;26;94749;-70
2024/04/12 00:39:49;;;;;;;;;;;;;;;16.73;41.82;102268.56;5254980;26;96389;-80
2024/04/12 00:42:31;;;;;;;;;;;;;;;16.72;42.10;102276.97;5264365;26;95441;-80
2024/04/12 00:44:58;;;;;;;;;;;;;;;16.67;42.10;102273.16;5238680;26;96911;-80
2024/04/12 00:47:24;;;;;;;;;;;;;;;16.65;41.10;102269.03;5256325;26;94498;-80
2024/04/12 00:49:51;;;;;;;;;;;;;;;16.63;41.91;102271.22;5249246;26;94471;-80
2024/04/12 00:52:28;;;;;;;;;;;;;;;16.61;41.17;102273.38;5208788;26;97028;-80
2024/04/12 00:55:03;;;;;;;;;;;;;;;16.58;41.10;102269.28;5283183;26;94182;-70
2024/04/12 00:57:36;;;;;;;;;;;;;;;16.56;42.12;102267.91;5205142;26;95357;-70
2024/04/12 01:00:19;;;;;;;;;;;;;;;16.54;41.65;102267.34;5253247;26;94415;-80
2024/04/12 01:02:51;;;;;;;;;;;;;;;16.51;41.45;102271.44;5206756;26;94869;-80
2024/04/12 01:05:18;;;;;;;;;;;;;;;16.49;42.24;102267.31;5229197;26;96090;-80
2024/04/12 01:07:49;;;;;;;;;;;;;;;16.46;41.77;102263.22;5198701;26;94633;-70
2024/04/12 01:10:21;;;;;;;;;;;;;;;16.44;42.01;102260.78;5231487;26;95497;-79
2024/04/12 01:12:54;;;;;;;;;;;;;;;16.41;41.78;102261.28;5199737;26;94586;-80
2024/04/12 01:15:24;;;;;;;;;;;;;;;16.39;41.48;102255.31;5225852;26;98218;-71
2024/04/12 01:17:51;;;;;;;;;;;;;;;16.35;41.45;102256.91;5257730;26;94356;-80
2024/04/12 01:20:21;;;;;;;;;;;;;;;16.34;41.94;102254.44;5235199;26;94650;-80
2024/04/12 01:22:47;;;;;;;;;;;;;;;16.30;41.86;102251.44;5252468;26;95253;-79
2024/04/12 01:25:17;;;;;;;;;;;;;;;16.30;42.06;102245.16;5232508;26;94689;-70
2024/04/12 01:27:44;;;;;;;;;;;;;;;16.26;41.45;102247.59;5234320;26;95282;-80
2024/04/12 01:30:12;;;;;;;;;;;;;;;16.24;41.76;102241.63;5261315;26;94463;-71
2024/04/12 01:32:38;;;;;;;;;;;;;;;16.23;41.85;102241.84;5206487;26;94857;-71
2024/04/12 01:35:04;;;;;;;;;;;;;;;16.20;42.12;102245.94;5254681;26;94679;-79
2024/04/12 01:37:34;;;;;;;;;;;;;;;16.18;41.77;102239.94;5257050;26;95877;-70
2024/04/12 01:40:05;;;;;;;;;;;;;;;16.16;42.19;102244.81;5226193;26;95170;-79
2024/04/12 01:42:37;;;;;;;;;;;;;;;16.13;41.33;102245.34;5231727;26;96045;-70
2024/04/12 01:45:15;;;;;;;;;;;;;;;16.11;41.30;102244.78;5254864;26;94977;-70
2024/04/12 01:47:48;;;;;;;;;;;;;;;16.11;42.19;102244.78;5232121;26;94427;-70
2024/04/12 01:50:22;;;;;;;;;;;;;;;16.06;41.42;102240.13;5250565;26;94438;-70
2024/04/12 01:52:55;;;;;;;;;;;;;;;16.04;42.32;102236.03;5237011;26;94935;-71
2024/04/12 01:55:24;;;;;;;;;;;;;;;16.02;42.26;102236.28;5249756;26;95912;-70
2024/04/12 01:57:55;;;;;;;;;;;;;;;15.99;41.92;102228.63;5277994;26;94641;-70
2024/04/12 02:00:23;;;;;;;;;;;;;;;15.98;41.98;102224.28;5248869;26;95932;-71
2024/04/12 02:02:53;;;;;;;;;;;;;;;15.95;42.13;102222.94;5236341;26;95818;-79
2024/04/12 02:05:29;;;;;;;;;;;;;;;15.93;42.23;102235.13;5249861;26;94992;-70
2024/04/12 02:07:56;;;;;;;;;;;;;;;15.89;41.38;102232.13;5210874;26;95125;-79
2024/04/12 02:10:23;;;;;;;;;;;;;;;15.89;42.28;102236.75;5260503;26;95232;-70
2024/04/12 02:12:54;;;;;;;;;;;;;;;15.87;42.21;102234.25;5252308;26;94394;-70
2024/04/12 02:15:25;;;;;;;;;;;;;;;15.85;41.96;102239.16;5247165;26;94311;-70
2024/04/12 02:17:59;;;;;;;;;;;;;;;15.84;41.62;102236.72;5224198;26;94651;-70
2024/04/12 02:20:35;;;;;;;;;;;;;;;15.81;41.42;102229.88;5272538;26;95093;-79
2024/04/12 02:23:04;;;;;;;;;;;;;;;15.79;41.93;102226.59;5251340;26;95266;-79
2024/04/12 02:25:33;;;;;;;;;;;;;;;15.78;42.25;102226.84;5263726;26;96061;-79
2024/04/12 02:28:00;;;;;;;;;;;;;;;15.76;42.12;102221.69;5227351;26;95407;-79
2024/04/12 02:30:32;;;;;;;;;;;;;;;15.75;41.46;102227.38;5249699;26;96305;-79
2024/04/12 02:33:00;;;;;;;;;;;;;;;15.74;41.90;102231.19;5234345;26;98996;-70
2024/04/12 02:35:27;;;;;;;;;;;;;;;15.73;42.17;102221.41;5202363;26;94952;-70
2024/04/12 02:37:53;;;;;;;;;;;;;;;15.69;42.31;102230.06;5253742;26;94957;-70
2024/04/12 02:40:20;;;;;;;;;;;;;;;15.67;41.83;102224.03;5236088;26;94495;-70
2024/04/12 02:42:47;;;;;;;;;;;;;;;15.66;42.41;102238.72;5259261;26;94346;-70
2024/04/12 02:45:14;;;;;;;;;;;;;;;15.63;42.32;102225.63;5204539;26;94295;-79
2024/04/12 02:47:43;;;;;;;;;;;;;;;15.62;42.11;102228.59;5235929;26;95716;-70
2024/04/12 02:50:15;;;;;;;;;;;;;;;15.61;41.50;102224.25;5196864;26;94469;-70
2024/04/12 02:52:42;;;;;;;;;;;;;;;15.59;42.34;102223.69;5204561;26;94360;-70
2024/04/12 02:55:13;;;;;;;;;;;;;;;15.58;42.32;102224.75;5235155;26;94223;-79
2024/04/12 02:57:41;;;;;;;;;;;;;;;15.55;41.99;102226.09;5229172;26;94239;-70
2024/04/12 03:00:21;;;;;;;;;;;;;;;15.54;42.05;102232.59;5257086;26;96022;-79
2024/04/12 03:02:52;;;;;;;;;;;;;;;15.53;42.19;102222.81;5223716;26;95482;-79
2024/04/12 03:05:23;;;;;;;;;;;;;;;15.51;41.83;102224.16;5230058;26;94363;-79
2024/04/12 03:07:52;;;;;;;;;;;;;;;15.50;42.14;102226.06;5253022;26;94614;-70
2024/04/12 03:10:24;;;;;;;;;;;;;;;15.47;41.70;102221.13;5206483;26;95616;-70
2024/04/12 03:12:54;;;;;;;;;;;;;;;15.46;42.19;102225.75;5238726;26;95958;-79
2024/04/12 03:15:22;;;;;;;;;;;;;;;15.44;42.42;102219.75;5230174;26;97102;-70
2024/04/12 03:17:49;;;;;;;;;;;;;;;15.44;42.24;102227.06;5194718;26;95030;-70
2024/04/12 03:20:16;;;;;;;;;;;;;;;15.42;41.59;102229.25;5237389;26;94859;-70
2024/04/12 03:22:46;;;;;;;;;;;;;;;15.41;42.28;102230.31;5250791;26;95317;-79
2024/04/12 03:25:15;;;;;;;;;;;;;;;15.39;41.69;102230.56;5208157;26;94830;-79
2024/04/12 03:27:42;;;;;;;;;;;;;;;15.37;41.61;102232.72;5222071;26;94530;-70
2024/04/12 03:30:15;;;;;;;;;;;;;;;15.36;42.00;102227.53;5197468;26;94926;-79
2024/04/12 03:32:44;;;;;;;;;;;;;;;15.35;41.93;102236.78;5238308;26;94882;-79
2024/04/12 03:35:12;;;;;;;;;;;;;;;15.33;42.30;102231.59;5254237;26;95280;-69
2024/04/12 03:37:39;;;;;;;;;;;;;;;15.31;42.24;102231.03;5250368;26;94466;-78
2024/04/12 03:40:16;;;;;;;;;;;;;;;15.30;41.92;102234.84;5233837;26;97028;-70
2024/04/12 03:42:44;;;;;;;;;;;;;;;15.27;42.14;102229.91;5235065;26;94353;-78
2024/04/12 03:45:15;;;;;;;;;;;;;;;15.27;42.13;102239.94;5235794;26;94214;-79
2024/04/12 03:47:45;;;;;;;;;;;;;;;15.25;42.41;102252.97;5227773;26;98596;-70
2024/04/12 03:50:13;;;;;;;;;;;;;;;15.23;41.78;102248.59;5200232;26;96216;-79
2024/04/12 03:52:44;;;;;;;;;;;;;;;15.22;42.27;102241.53;5275855;26;94575;-70
2024/04/12 03:55:11;;;;;;;;;;;;;;;15.20;42.38;102240.97;5253745;26;94484;-70
2024/04/12 03:57:44;;;;;;;;;;;;;;;15.19;42.00;102239.31;5203181;26;94560;-78
2024/04/12 04:00:11;;;;;;;;;;;;;;;15.17;41.93;102236.06;5201471;26;94621;-79
2024/04/12 04:02:37;;;;;;;;;;;;;;;15.17;41.94;102246.09;5253697;26;94532;-79
2024/04/12 04:05:15;;;;;;;;;;;;;;;15.16;42.26;102236.28;5247266;26;96889;-78
2024/04/12 04:07:45;;;;;;;;;;;;;;;15.14;42.00;102242.00;5220872;26;94999;-70
2024/04/12 04:10:15;;;;;;;;;;;;;;;15.14;42.34;102247.44;5230488;26;95578;-70
2024/04/12 04:12:45;;;;;;;;;;;;;;;15.13;42.00;102239.53;5252965;26;95907;-79
2024/04/12 04:15:12;;;;;;;;;;;;;;;15.12;41.78;102233.28;5229758;26;94527;-70
2024/04/12 04:17:39;;;;;;;;;;;;;;;15.10;41.95;102232.72;5230238;26;94557;-69
2024/04/12 04:20:07;;;;;;;;;;;;;;;15.11;42.01;102236.25;5197680;26;95082;-78
2024/04/12 04:25:00;;;;;;;;;;;;;;;15.10;41.99;102235.44;5246641;26;95659;-78
2024/04/12 04:27:26;;;;;;;;;;;;;;;15.10;41.94;102230.00;5220769;26;97571;-69
2024/04/12 04:29:56;;;;;;;;;;;;;;;15.11;41.91;102236.25;5242986;26;96788;-69
2024/04/12 04:32:22;;;;;;;;;;;;;;;15.10;42.03;102243.59;5212293;26;94686;-69
2024/04/12 04:35:05;;;;;;;;;;;;;;;15.12;42.44;102240.59;5248012;26;96288;-78
2024/04/12 04:37:34;;;;;;;;;;;;;;;15.12;42.03;102246.84;5253055;26;94342;-70
2024/04/12 04:40:02;;;;;;;;;;;;;;;15.14;41.77;102250.16;5224859;26;94852;-70
2024/04/12 04:42:29;;;;;;;;;;;;;;;15.15;41.91;102256.41;5256438;26;94326;-79
2024/04/12 04:44:56;;;;;;;;;;;;;;;15.17;42.01;102257.78;5251541;26;95918;-69
2024/04/12 04:47:25;;;;;;;;;;;;;;;15.19;42.17;102260.25;5229492;26;95657;-78
2024/04/12 04:49:52;;;;;;;;;;;;;;;15.22;41.99;102265.16;5233457;26;96072;-69
2024/04/12 04:52:21;;;;;;;;;;;;;;;15.25;42.28;102248.38;5222446;26;94399;-78
2024/04/12 04:54:47;;;;;;;;;;;;;;;15.30;41.66;102253.84;5230942;26;94562;-79
2024/04/12 04:57:16;;;;;;;;;;;;;;;15.35;42.16;102250.34;5252346;26;95426;-70
2024/04/12 04:59:44;;;;;;;;;;;;;;;15.44;42.08;102259.69;5200796;26;94733;-70
2024/04/12 05:02:11;;;;;;;;;;;;;;;15.50;41.74;102253.22;5225519;26;94215;-70
2024/04/12 05:04:38;;;;;;;;;;;;;;;15.57;41.84;102251.13;5195233;26;94353;-79
2024/04/12 05:07:04;;;;;;;;;;;;;;;15.66;41.42;102254.22;5251806;26;94719;-79
2024/04/12 05:09:32;;;;;;;;;;;;;;;15.70;41.86;102249.91;5254881;26;94379;-79
2024/04/12 05:11:58;;;;;;;;;;;;;;;15.75;41.52;102255.38;5202353;26;94172;-79
2024/04/12 05:17:06;;;;;;;;;;;;;;;15.86;41.22;102242.69;5249273;26;98843;-70
2024/04/12 05:19:40;;;;;;;;;;;;;;;15.93;41.78;102246.03;5208371;26;94734;-79
2024/04/12 05:22:19;;;;;;;;;;;;;;;16.04;42.03;102249.63;5259609;26;94278;-70
2024/04/12 05:24:46;;;;;;;;;;;;;;;16.14;41.96;102250.50;5237654;26;94298;-79
2024/04/12 05:27:12;;;;;;;;;;;;;;;16.23;41.10;102247.28;5234100;26;94833;-79
2024/04/12 05:29:40;;;;;;;;;;;;;;;16.35;41.39;102248.75;5253319;26;94624;-70
2024/04/12 05:32:09;;;;;;;;;;;;;;;16.44;41.95;102249.88;5235089;26;95461;-79
2024/04/12 05:34:36;;;;;;;;;;;;;;;16.53;41.10;102242.03;5206023;26;94990;-70
2024/04/12 05:37:04;;;;;;;;;;;;;;;16.58;41.26;102236.59;5254056;26;96113;-79
2024/04/12 05:39:35;;;;;;;;;;;;;;;16.66;41.41;102238.84;5254513;25;100058;-75
2024/04/12 05:42:05;;;;;;;;;;;;;;;16.73;41.29;102238.63;5224236;26;94124;-79
2024/04/12 05:44:33;;;;;;;;;;;;;;;16.78;41.60;102238.66;5226921;26;94538;-79
2024/04/12 05:47:02;;;;;;;;;;;;;;;16.85;41.53;102249.28;5229137;26;95242;-70
2024/04/12 05:49:30;;;;;;;;;;;;;;;16.91;41.07;102249.03;5250068;26;95098;-70
2024/04/12 05:52:01;;;;;;;;;;;;;;;16.98;40.98;102245.25;5232337;26;95812;-79
2024/04/12 05:54:39;;;;;;;;;;;;;;;17.05;41.70;102245.81;5223557;26;94592;-79
2024/04/12 05:57:06;;;;;;;;;;;;;;;17.13;41.15;102237.97;5254878;26;94158;-79
2024/04/12 05:59:34;;;;;;;;;;;;;;;17.19;41.27;102241.50;5233696;26;96827;-70
2024/04/12 06:02:05;;;;;;;;;;;;;;;17.26;40.93;102235.81;5251433;26;94417;-79
2024/04/12 06:04:31;;;;;;;;;;;;;;;17.33;41.56;102239.91;5232936;26;94462;-78
2024/04/12 06:07:01;;;;;;;;;;;;;;;17.39;41.68;102240.72;5266300;26;95424;-79
2024/04/12 06:09:27;;;;;;;;;;;;;;;17.49;40.78;102242.63;5221279;26;96016;-70
2024/04/12 06:11:54;;;;;;;;;;;;;;;17.60;41.32;102247.00;5232429;26;94887;-78
2024/04/12 06:14:22;;;;;;;;;;;;;;;17.70;41.58;102249.75;5281702;26;95780;-70
2024/04/12 06:16:56;;;;;;;;;;;;;;;17.81;41.48;102243.25;5226192;26;94760;-70
2024/04/12 06:19:26;;;;;;;;;;;;;;;17.95;40.92;102234.50;5255534;26;94789;-78
2024/04/12 06:21:52;;;;;;;;;;;;;;;18.08;40.98;102231.22;5225127;26;94733;-69
2024/04/12 06:24:29;;;;;;;;;;;;;;;18.24;40.98;102238.28;5284368;26;101611;-69
2024/04/12 06:26:57;;;;;;;;;;;;;;;18.35;40.76;102233.59;5232030;26;95721;-69
2024/04/12 06:29:26;;;;;;;;;;;;;;;18.48;41.29;102237.66;5255058;26;94509;-78
2024/04/12 06:31:56;;;;;;;;;;;;;;;18.54;41.00;102239.28;5272846;26;94471;-79
2024/04/12 06:34:23;;;;;;;;;;;;;;;18.73;41.12;102221.19;5230061;26;94379;-70
2024/04/12 06:36:57;;;;;;;;;;;;;;;19.01;40.76;102216.97;5226270;26;94521;-79
2024/04/12 06:39:27;;;;;;;;;;;;;;;19.32;40.34;102209.38;5231626;26;94661;-79
2024/04/12 06:41:57;;;;;;;;;;;;;;;19.43;40.42;102218.34;5261979;26;94962;-79
2024/04/12 06:44:24;;;;;;;;;;;;;;;19.54;40.54;102208.13;5224379;26;96665;-79
2024/04/12 06:47:00;;;;;;;;;;;;;;;19.94;40.16;102204.25;5234855;26;94662;-79
2024/04/12 06:49:27;;;;;;;;;;;;;;;20.23;40.83;102204.19;5232733;26;95445;-79
2024/04/12 06:52:09;;;;;;;;;;;;;;;20.31;39.91;102205.47;5232003;26;98998;-70
2024/04/12 06:54:36;;;;;;;;;;;;;;;20.47;40.23;102208.88;5226321;26;94390;-80
2024/04/12 06:57:06;;;;;;;;;;;;;;;20.83;40.59;102212.81;5203806;26;95839;-80
2024/04/12 06:59:35;;;;;;;;;;;;;;;20.97;39.52;102215.63;5233787;26;96556;-79
2024/04/12 07:02:07;;;;;;;;;;;;;;;21.02;40.36;102218.28;5237743;26;94369;-79
2024/04/12 07:04:38;;;;;;;;;;;;;;;21.04;39.71;102216.09;5201848;26;94355;-78
2024/04/12 07:07:06;;;;;;;;;;;;;;;21.04;40.15;102223.50;5261057;26;94284;-78
2024/04/12 07:09:33;;;;;;;;;;;;;;;21.14;40.31;102222.53;5257186;26;94172;-79
2024/04/12 07:12:05;;;;;;;;;;;;;;;21.28;40.51;102232.47;5201850;26;94634;-70
2024/04/12 07:14:42;;;;;;;;;;;;;;;21.27;40.09;102230.84;5251450;26;95399;-79
2024/04/12 07:17:20;;;;;;;;;;;;;;;21.30;41.06;102232.19;5222222;26;94489;-70
2024/04/12 07:19:50;;;;;;;;;;;;;;;21.34;41.06;102227.75;5254952;26;96355;-70
2024/04/12 07:22:26;;;;;;;;;;;;;;;21.58;40.63;102241.38;5232470;26;95256;-79
2024/04/12 07:24:53;;;;;;;;;;;;;;;21.99;39.87;102240.66;5263193;26;96242;-70
2024/04/12 07:27:27;;;;;;;;;;;;;;;22.10;39.68;102233.06;5203775;26;95049;-70
2024/04/12 07:29:57;;;;;;;;;;;;;;;22.30;40.11;102235.44;5196394;26;94595;-79
2024/04/12 07:32:23;;;;;;;;;;;;;;;22.58;40.10;102241.75;5254437;26;95094;-79
2024/04/12 07:34:52;;;;;;;;;;;;;;;22.72;39.95;102239.81;5257112;26;94277;-78
2024/04/12 07:37:30;;;;;;;;;;;;;;;22.65;39.92;102236.66;5250560;26;94945;-78
2024/04/12 07:40:17;;;;;;;;;;;;;;;22.53;40.21;102233.63;5248400;26;94741;-78
2024/04/12 07:42:48;;;;;;;;;;;;;;;22.43;40.98;102240.13;5235887;26;94345;-70
2024/04/12 07:45:25;;;;;;;;;;;;;;;22.30;40.43;102230.75;5279556;26;94718;-79
2024/04/12 07:50:41;;;;;;;;;;;;;;;22.19;40.70;102245.81;5238159;26;94185;-70
2024/04/12 07:55:55;;;;;;;;;;;;;;;22.26;40.93;102251.72;5252813;26;94303;-70
2024/04/12 07:58:26;;;;;;;;;;;;;;;22.66;40.41;102253.97;5249266;26;95214;-79
2024/04/12 08:00:58;;;;;;;;;;;;;;;23.03;40.05;102256.50;5257028;26;94569;-69
2024/04/12 08:03:26;;;;;;;;;;;;;;;23.45;39.63;102253.59;5251763;26;94585;-70
2024/04/12 08:06:00;;;;;;;;;;;;;;;23.95;39.49;102242.47;5250206;26;97324;-80
2024/04/12 08:08:29;;;;;;;;;;;;;;;24.72;38.34;102239.25;5229078;26;95945;-70
2024/04/12 08:11:11;;;;;;;;;;;;;;;25.54;37.80;102239.47;5224080;26;94836;-80
2024/04/12 08:13:50;;;;;;;;;;;;;;;26.25;38.87;102238.97;5256737;26;97906;-79
2024/04/12 08:16:16;;;;;;;;;;;;;;;26.88;38.08;102245.50;5232140;26;94502;-70
2024/04/12 08:18:43;;;;;;;;;;;;;;;27.56;37.92;102234.22;5194320;26;94684;-71
2024/04/12 08:21:13;;;;;;;;;;;;;;;28.63;37.08;102225.94;5260971;26;94488;-71
2024/04/12 08:23:45;;;;;;;;;;;;;;;29.60;37.36;102218.50;5254914;26;94521;-79
2024/04/12 08:26:16;;;;;;;;;;;;;;;30.56;37.02;102217.34;5258681;26;94370;-72
2024/04/12 08:28:43;;;;;;;;;;;;;;;31.47;35.97;102224.44;5216223;26;97041;-72
2024/04/12 08:31:18;;;;;;;;;;;;;;;32.31;36.28;102217.19;5248589;26;95326;-81
2024/04/12 08:33:45;;;;;;;;;;;;;;;33.06;36.25;102219.06;5196099;26;95136;-72
2024/04/12 08:36:16;;;;;;;;;;;;;;;33.87;36.06;102214.72;5233526;26;94550;-81
2024/04/12 08:39:12;;;;;;;;;;;;;;;34.66;36.00;102218.94;5262834;26;94338;-82
2024/04/12 08:41:42;;;;;;;;;;;;;;;35.57;34.84;102221.72;5264885;26;94660;-81
2024/04/12 08:44:11;;;;;;;;;;;;;;;36.31;35.07;102218.13;5226510;26;94292;-72
2024/04/12 08:46:46;;;;;;;;;;;;;;;36.97;34.99;102222.38;5256649;26;96736;-83
2024/04/12 08:49:17;;;;;;;;;;;;;;;37.73;34.91;102215.09;5235243;26;96572;-82
2024/04/12 08:51:46;;;;;;;;;;;;;;;38.43;34.88;102212.88;5229279;26;94613;-73
2024/04/12 08:54:15;;;;;;;;;;;;;;;38.97;34.54;102209.44;5237457;26;96244;-83
2024/04/12 08:56:46;;;;;;;;;;;;;;;39.64;34.96;102206.88;5235987;26;94248;-73
2024/04/12 08:59:18;;;;;;;;;;;;;;;40.26;34.97;102199.00;5285559;26;98803;-73
2024/04/12 09:01:48;;;;;;;;;;;;;;;40.66;35.22;102197.78;5266752;26;94725;-82
2024/04/12 09:04:15;;;;;;;;;;;;;;;40.82;34.86;102193.44;5236907;26;94591;-73
2024/04/12 09:06:50;;;;;;;;;;;;;;;40.84;34.69;102182.50;5240748;26;94790;-81
2024/04/12 09:09:19;;;;;;;;;;;;;;;41.32;34.68;102195.16;5229407;26;95458;-73
2024/04/12 09:11:49;;;;;;;;;;;;;;;41.63;34.69;102190.75;5267252;26;94490;-80
2024/04/12 09:14:20;;;;;;;;;;;;;;;42.03;34.48;102176.41;5260228;26;94336;-72
2024/04/12 09:17:00;;;;;;;;;;;;;;;42.35;34.95;102181.19;5238398;26;94467;-81
2024/04/12 09:19:28;;;;;;;;;;;;;;;42.33;34.85;102180.03;5212594;26;94653;-72
2024/04/12 09:22:02;;;;;;;;;;;;;;;41.52;34.99;102166.81;5259192;26;94755;-72
2024/04/12 09:24:31;;;;;;;;;;;;;;;41.52;35.06;102164.78;5230984;26;94206;-73
2024/04/12 09:27:06;;;;;;;;;;;;;;;41.84;35.22;102161.13;5234107;26;95048;-73
2024/04/12 09:29:43;;;;;;;;;;;;;;;42.33;35.23;102157.38;5255987;26;94848;-73
2024/04/12 09:34:55;;;;;;;;;;;;;;;43.40;33.67;102156.94;5251492;26;94862;-75
2024/04/12 09:37:29;;;;;;;;;;;;;;;43.88;33.94;102142.78;5210631;26;94484;-74
2024/04/12 09:45:45;;;;;;;;;;;;;;;44.52;33.34;102126.97;5241080;26;95041;-83
2024/04/12 10:39:33;;;;;;;;;;;;;;;46.45;33.11;102027.59;5255567;26;96051;-81
2024/04/12 10:42:05;;;;;;;;;;;;;;;46.36;33.30;102036.19;5201610;26;94245;-82
2024/04/12 10:44:32;;;;;;;;;;;;;;;46.35;32.74;102037.47;5236128;26;94674;-74
2024/04/12 10:46:59;;;;;;;;;;;;;;;46.39;33.06;102034.44;5229833;26;95886;-75
2024/04/12 10:49:33;;;;;;;;;;;;;;;46.46;32.90;102031.25;5260614;26;95797;-82
2024/04/12 10:51:59;;;;;;;;;;;;;;;46.58;32.53;102024.56;5228151;26;95212;-73
2024/04/12 10:54:26;;;;;;;;;;;;;;;44.81;34.04;102004.47;5232977;26;94599;-81
2024/04/12 10:56:56;;;;;;;;;;;;;;;45.49;33.27;102003.59;5233586;26;95052;-73
2024/04/12 10:59:28;;;;;;;;;;;;;;;45.38;33.34;101998.34;5232274;26;94394;-81
2024/04/12 11:01:59;;;;;;;;;;;;;;;45.24;33.26;102001.84;5209735;26;95405;-82
2024/04/12 11:04:34;;;;;;;;;;;;;;;44.83;33.66;101999.06;5282960;26;94331;-81
2024/04/12 11:07:02;;;;;;;;;;;;;;;44.56;33.43;101990.47;5251132;26;100567;-81
2024/04/12 11:09:37;;;;;;;;;;;;;;;44.32;33.67;102005.22;5260626;26;94388;-85
2024/04/12 11:12:09;;;;;;;;;;;;;;;43.95;33.87;101998.53;5262967;26;95432;-85
2024/04/12 11:14:38;;;;;;;;;;;;;;;43.59;34.50;101990.56;5238135;26;94374;-75
2024/04/12 11:31:14;;;;;;;;;;;;;;;43.88;33.26;101964.75;5257041;26;94932;-84
2024/04/12 11:33:53;;;;;;;;;;;;;;;43.81;33.18;101960.09;5243444;26;94744;-84
2024/04/12 11:36:21;;;;;;;;;;;;;;;43.69;33.51;101963.03;5225658;26;94590;-76
2024/04/12 11:38:55;;;;;;;;;;;;;;;43.42;33.52;101955.09;5258000;26;94499;-84
2024/04/12 11:41:25;;;;;;;;;;;;;;;43.07;34.38;101958.72;5230472;26;95450;-83
2024/04/12 11:43:54;;;;;;;;;;;;;;;42.59;33.92;101948.59;5255964;26;96504;-76
2024/04/12 11:46:29;;;;;;;;;;;;;;;42.03;34.00;101949.94;5205373;26;94194;-84
2024/04/12 11:49:07;;;;;;;;;;;;;;;41.55;34.74;101945.31;5231686;26;95296;-76
2024/04/12 11:51:36;;;;;;;;;;;;;;;40.94;35.37;101932.75;5202017;26;96019;-83
2024/04/12 11:54:05;;;;;;;;;;;;;;;40.52;35.17;101940.25;5247646;26;94939;-83
2024/04/12 11:56:37;;;;;;;;;;;;;;;40.18;35.12;101928.13;5237155;26;94223;-83
2024/04/12 11:59:04;;;;;;;;;;;;;;;39.91;35.12;101928.31;5247350;26;94645;-83
2024/04/12 12:01:31;;;;;;;;;;;;;;;39.64;35.19;101924.84;5234925;26;94595;-76
2024/04/12 12:04:07;;;;;;;;;;;;;;;39.43;35.17;101921.22;5202263;26;94862;-83
2024/04/12 12:06:38;;;;;;;;;;;;;;;39.28;35.13;101912.25;5274938;26;95275;-82
2024/04/12 12:09:11;;;;;;;;;;;;;;;39.14;35.10;101920.94;5236949;26;94562;-75
2024/04/12 12:11:43;;;;;;;;;;;;;;;38.86;35.52;101918.63;5238062;26;97885;-75
2024/04/12 12:14:13;;;;;;;;;;;;;;;38.57;35.88;101912.66;5235898;26;94355;-75
2024/04/12 12:16:39;;;;;;;;;;;;;;;38.27;35.78;101905.84;5202919;26;95915;-75
2024/04/12 12:19:06;;;;;;;;;;;;;;;37.97;35.93;101904.69;5260741;26;94620;-74
2024/04/12 12:21:38;;;;;;;;;;;;;;;37.73;35.61;101914.19;5231656;26;94935;-83
2024/04/12 12:24:06;;;;;;;;;;;;;;;37.38;35.90;101912.59;5237061;26;94152;-83
2024/04/12 12:26:34;;;;;;;;;;;;;;;37.22;36.09;101907.53;5238066;26;94510;-76
2024/04/12 12:29:02;;;;;;;;;;;;;;;37.09;36.14;101916.47;5265820;26;94961;-75
2024/04/12 12:31:30;;;;;;;;;;;;;;;36.86;36.17;101897.44;5210342;26;95347;-75
2024/04/12 12:33:57;;;;;;;;;;;;;;;36.40;35.77;101902.59;5233486;26;94503;-83
2024/04/12 12:36:25;;;;;;;;;;;;;;;36.12;36.64;101899.56;5252920;26;96282;-75
2024/04/12 12:38:58;;;;;;;;;;;;;;;36.15;35.92;101895.09;5239636;26;95028;-83
2024/04/12 12:41:26;;;;;;;;;;;;;;;36.18;36.09;101899.13;5257620;26;95122;-76
2024/04/12 12:43:53;;;;;;;;;;;;;;;36.24;35.96;101905.91;5210271;26;95836;-75
2024/04/12 12:46:21;;;;;;;;;;;;;;;36.20;35.61;101905.91;5237432;26;95261;-84
2024/04/12 12:48:54;;;;;;;;;;;;;;;36.25;36.34;101904.69;5259397;26;96057;-84
2024/04/12 12:51:26;;;;;;;;;;;;;;;36.03;35.99;101896.38;5261486;26;94448;-75
2024/04/12 12:53:53;;;;;;;;;;;;;;;35.92;36.41;101889.19;5232165;26;96542;-83
2024/04/12 12:56:24;;;;;;;;;;;;;;;35.77;36.03;101891.28;5262505;26;94628;-83
2024/04/12 12:58:50;;;;;;;;;;;;;;;35.77;36.23;101899.72;5204199;26;95103;-83
2024/04/12 13:01:17;;;;;;;;;;;;;;;35.68;35.62;101894.50;5263503;26;94991;-84
2024/04/12 13:03:47;;;;;;;;;;;;;;;35.50;35.91;101894.59;5259103;26;95883;-82
2024/04/12 13:06:21;;;;;;;;;;;;;;;35.52;35.78;101899.78;5231146;26;95044;-76
2024/04/12 13:08:48;;;;;;;;;;;;;;;35.28;35.94;101885.41;5206918;26;95469;-76
2024/04/12 13:11:24;;;;;;;;;;;;;;;35.12;35.94;101888.66;5222681;26;95258;-76
2024/04/12 13:13:50;;;;;;;;;;;;;;;35.17;36.49;101887.44;5234365;26;96056;-83
2024/04/12 13:16:24;;;;;;;;;;;;;;;35.20;36.76;101869.81;5252282;26;95197;-83
2024/04/12 13:18:53;;;;;;;;;;;;;;;35.14;36.76;101872.25;5228393;26;98774;-75
2024/04/12 13:21:19;;;;;;;;;;;;;;;35.32;36.08;101872.19;5252553;26;96420;-76
2024/04/12 13:23:48;;;;;;;;;;;;;;;35.41;36.31;101875.38;5224632;26;95323;-75
2024/04/12 13:26:25;;;;;;;;;;;;;;;35.29;35.76;101870.22;5200050;26;96779;-84
2024/04/12 13:28:54;;;;;;;;;;;;;;;34.91;36.67;101869.06;5218415;26;95931;-75
2024/04/12 13:31:24;;;;;;;;;;;;;;;34.64;37.15;101868.66;5246633;26;95523;-76
2024/04/12 13:33:56;;;;;;;;;;;;;;;34.40;36.96;101864.63;5249550;26;94523;-84
2024/04/12 13:36:25;;;;;;;;;;;;;;;34.17;36.48;101873.38;5250735;26;94495;-84
2024/04/12 13:38:53;;;;;;;;;;;;;;;33.97;37.18;101867.31;5196061;26;94384;-81
2024/04/12 13:41:20;;;;;;;;;;;;;;;33.65;37.24;101864.41;5248558;26;94419;-74
2024/04/12 13:43:49;;;;;;;;;;;;;;;33.57;36.80;101859.97;5226177;26;95547;-84
2024/04/12 13:51:49;;;;;;;;;;;;;;;32.72;37.51;101841.44;5225898;26;94884;-83
2024/04/12 13:54:23;;;;;;;;;;;;;;;32.64;37.30;101846.16;5225229;26;94570;-75
2024/04/12 13:56:58;;;;;;;;;;;;;;;32.50;37.07;101843.22;5200408;26;95000;-84
2024/04/12 13:59:33;;;;;;;;;;;;;;;32.20;37.63;101827.41;5230240;26;94645;-83
2024/04/12 14:02:03;;;;;;;;;;;;;;;32.02;37.21;101818.03;5248375;26;96460;-83
2024/04/12 14:04:30;;;;;;;;;;;;;;;32.01;37.20;101831.19;5198918;26;94883;-75
2024/04/12 14:06:56;;;;;;;;;;;;;;;31.88;37.37;101829.84;5189805;26;94605;-75
2024/04/12 14:09:28;;;;;;;;;;;;;;;31.68;37.97;101828.41;5224301;26;94169;-83
2024/04/12 14:11:56;;;;;;;;;;;;;;;31.29;37.67;101817.53;5269165;26;94983;-73
2024/04/12 14:14:26;;;;;;;;;;;;;;;31.19;38.26;101816.19;5255298;26;94368;-83
2024/04/12 14:16:53;;;;;;;;;;;;;;;31.09;37.55;101816.84;5244665;26;94810;-74
2024/04/12 14:19:23;;;;;;;;;;;;;;;30.98;37.31;101813.09;5230578;26;94489;-83
2024/04/12 14:21:52;;;;;;;;;;;;;;;30.75;36.94;101810.38;5227469;26;95779;-73